sensor_id;sensor_type;location;lat;lon;timestamp;temperature;humidity
13598;DHT22;38563;54.258;12.574;2023-02-28T00:00:16;-0.80;99.90
13598;DHT22;38563;54.258;12.574;2023-02-28T00:02:44;-0.70;99.90
13598;DHT22;38563;54.258;12.574;2023-02-28T00:05:13;-0.70;99.90
13598;DHT22;38563;54.258;12.574;2023-02-28T00:07:40;-0.60;99.90
13598;DHT22;38563;54.258;12.574;2023-02-28T00:10:09;-0.60;99.90
13598;DHT22;38563;54.258;12.574;2023-02-28T00:12:38;-0.60;99.90
13598;DHT22;38563;54.258;12.574;2023-02-28T00:15:06;-0.70;99.90
13598;DHT22;38563;54.258;12.574;2023-02-28T00:17:33;-0.80;99.90
13598;DHT22;38563;54.258;12.574;2023-02-28T00:19:59;-1.00;99.90
13598;DHT22;38563;54.258;12.574;2023-02-28T00:22:36;-1.00;99.90
13598;DHT22;38563;54.258;12.574;2023-02-28T00:25:03;-1.00;99.90
13598;DHT22;38563;54.258;12.574;2023-02-28T00:27:30;-1.00;99.90
13598;DHT22;38563;54.258;12.574;2023-02-28T00:29:58;-1.00;99.90
13598;DHT22;38563;54.258;12.574;2023-02-28T00:32:25;-0.90;99.90
13598;DHT22;38563;54.258;12.574;2023-02-28T00:34:52;-0.90;99.90
13598;DHT22;38563;54.258;12.574;2023-02-28T00:37:18;-0.90;99.90
13598;DHT22;38563;54.258;12.574;2023-02-28T00:39:45;-1.10;99.90
13598;DHT22;38563;54.258;12.574;2023-02-28T00:42:12;-1.10;99.90
13598;DHT22;38563;54.258;12.574;2023-02-28T00:44:38;-1.20;99.90
13598;DHT22;38563;54.258;12.574;2023-02-28T00:47:06;-1.30;99.90
13598;DHT22;38563;54.258;12.574;2023-02-28T00:49:33;-1.40;99.90
13598;DHT22;38563;54.258;12.574;2023-02-28T00:52:01;-1.50;99.90
13598;DHT22;38563;54.258;12.574;2023-02-28T00:54:28;-1.60;99.90
13598;DHT22;38563;54.258;12.574;2023-02-28T00:56:55;-1.60;99.90
13598;DHT22;38563;54.258;12.574;2023-02-28T00:59:22;-1.70;99.90
13598;DHT22;38563;54.258;12.574;2023-02-28T01:01:48;-1.70;99.90
13598;DHT22;38563;54.258;12.574;2023-02-28T01:04:16;-1.70;99.90
13598;DHT22;38563;54.258;12.574;2023-02-28T01:06:43;-1.80;99.90
13598;DHT22;38563;54.258;12.574;2023-02-28T01:09:11;-1.90;99.90
13598;DHT22;38563;54.258;12.574;2023-02-28T01:11:38;-1.90;99.90
13598;DHT22;38563;54.258;12.574;2023-02-28T01:14:07;-2.00;99.90
13598;DHT22;38563;54.258;12.574;2023-02-28T01:16:36;-2.00;99.90
13598;DHT22;38563;54.258;12.574;2023-02-28T01:19:03;-2.00;99.90
13598;DHT22;38563;54.258;12.574;2023-02-28T01:21:31;-2.10;99.90
13598;DHT22;38563;54.258;12.574;2023-02-28T01:23:58;-2.00;99.90
13598;DHT22;38563;54.258;12.574;2023-02-28T01:26:25;-2.10;99.90
13598;DHT22;38563;54.258;12.574;2023-02-28T01:28:52;-2.10;99.90
13598;DHT22;38563;54.258;12.574;2023-02-28T01:31:20;-2.20;99.90
13598;DHT22;38563;54.258;12.574;2023-02-28T01:33:48;-2.20;99.90
13598;DHT22;38563;54.258;12.574;2023-02-28T01:36:16;-2.30;99.90
13598;DHT22;38563;54.258;12.574;2023-02-28T01:38:45;-2.30;99.90
13598;DHT22;38563;54.258;12.574;2023-02-28T01:41:16;-2.40;99.90
13598;DHT22;38563;54.258;12.574;2023-02-28T01:43:56;-2.40;99.90
13598;DHT22;38563;54.258;12.574;2023-02-28T01:46:23;-2.40;99.90
13598;DHT22;38563;54.258;12.574;2023-02-28T01:48:56;-2.40;99.90
13598;DHT22;38563;54.258;12.574;2023-02-28T01:51:26;-2.40;99.90
13598;DHT22;38563;54.258;12.574;2023-02-28T01:53:59;-2.40;99.90
13598;DHT22;38563;54.258;12.574;2023-02-28T01:56:30;-2.40;99.90
13598;DHT22;38563;54.258;12.574;2023-02-28T01:58:57;-2.40;99.90
13598;DHT22;38563;54.258;12.574;2023-02-28T02:01:26;-2.50;99.90
13598;DHT22;38563;54.258;12.574;2023-02-28T02:03:55;-2.50;99.90
13598;DHT22;38563;54.258;12.574;2023-02-28T02:06:25;-2.50;99.90
13598;DHT22;38563;54.258;12.574;2023-02-28T02:08:54;-2.40;99.90
13598;DHT22;38563;54.258;12.574;2023-02-28T02:11:23;-2.40;99.90
13598;DHT22;38563;54.258;12.574;2023-02-28T02:14:05;-2.40;99.90
13598;DHT22;38563;54.258;12.574;2023-02-28T02:16:50;-2.50;99.90
13598;DHT22;38563;54.258;12.574;2023-02-28T02:19:47;-2.50;99.90
13598;DHT22;38563;54.258;12.574;2023-02-28T02:25:28;-2.60;99.90
13598;DHT22;38563;54.258;12.574;2023-02-28T02:28:22;-2.70;99.90
13598;DHT22;38563;54.258;12.574;2023-02-28T02:31:26;-2.70;99.90
13598;DHT22;38563;54.258;12.574;2023-02-28T02:37:07;-2.70;99.90
13598;DHT22;38563;54.258;12.574;2023-02-28T02:39:40;-2.60;99.90
13598;DHT22;38563;54.258;12.574;2023-02-28T02:42:16;-2.60;99.90
13598;DHT22;38563;54.258;12.574;2023-02-28T02:44:49;-2.60;99.90
13598;DHT22;38563;54.258;12.574;2023-02-28T02:47:21;-2.70;99.90
13598;DHT22;38563;54.258;12.574;2023-02-28T02:49:51;-2.70;99.90
13598;DHT22;38563;54.258;12.574;2023-02-28T02:52:23;-2.80;99.90
13598;DHT22;38563;54.258;12.574;2023-02-28T02:54:54;-2.80;99.90
13598;DHT22;38563;54.258;12.574;2023-02-28T02:57:25;-2.90;99.90
13598;DHT22;38563;54.258;12.574;2023-02-28T02:59:54;-2.90;99.90
13598;DHT22;38563;54.258;12.574;2023-02-28T03:02:23;-2.80;99.90
13598;DHT22;38563;54.258;12.574;2023-02-28T03:04:53;-2.80;99.90
13598;DHT22;38563;54.258;12.574;2023-02-28T03:07:23;-2.80;99.90
13598;DHT22;38563;54.258;12.574;2023-02-28T03:09:51;-2.80;99.90
13598;DHT22;38563;54.258;12.574;2023-02-28T03:12:19;-2.80;99.90
13598;DHT22;38563;54.258;12.574;2023-02-28T03:15:04;-2.80;99.90
13598;DHT22;38563;54.258;12.574;2023-02-28T03:17:52;-2.80;99.90
13598;DHT22;38563;54.258;12.574;2023-02-28T03:20:32;-2.80;99.90
13598;DHT22;38563;54.258;12.574;2023-02-28T03:23:10;-2.50;99.90
13598;DHT22;38563;54.258;12.574;2023-02-28T03:25:50;-2.30;99.90
13598;DHT22;38563;54.258;12.574;2023-02-28T03:28:27;-2.20;99.90
13598;DHT22;38563;54.258;12.574;2023-02-28T03:31:00;-2.10;99.90
13598;DHT22;38563;54.258;12.574;2023-02-28T03:33:29;-2.10;99.90
13598;DHT22;38563;54.258;12.574;2023-02-28T03:35:59;-2.10;99.90
13598;DHT22;38563;54.258;12.574;2023-02-28T03:38:33;-2.10;99.90
13598;DHT22;38563;54.258;12.574;2023-02-28T03:41:05;-2.10;99.90
13598;DHT22;38563;54.258;12.574;2023-02-28T03:43:35;-2.10;99.90
13598;DHT22;38563;54.258;12.574;2023-02-28T03:46:08;-2.10;99.90
13598;DHT22;38563;54.258;12.574;2023-02-28T03:48:40;-2.10;99.90
13598;DHT22;38563;54.258;12.574;2023-02-28T03:51:10;-2.10;99.90
13598;DHT22;38563;54.258;12.574;2023-02-28T03:53:42;-2.10;99.90
13598;DHT22;38563;54.258;12.574;2023-02-28T03:56:14;-2.10;99.90
13598;DHT22;38563;54.258;12.574;2023-02-28T03:58:46;-2.10;99.90
13598;DHT22;38563;54.258;12.574;2023-02-28T04:01:18;-2.20;99.90
13598;DHT22;38563;54.258;12.574;2023-02-28T04:03:45;-2.20;99.90
13598;DHT22;38563;54.258;12.574;2023-02-28T04:06:15;-2.30;99.90
13598;DHT22;38563;54.258;12.574;2023-02-28T04:08:44;-2.40;99.90
13598;DHT22;38563;54.258;12.574;2023-02-28T04:11:22;-2.40;99.90
13598;DHT22;38563;54.258;12.574;2023-02-28T04:13:49;-2.40;99.90
13598;DHT22;38563;54.258;12.574;2023-02-28T04:16:16;-2.50;99.90
13598;DHT22;38563;54.258;12.574;2023-02-28T04:18:42;-2.50;99.90
13598;DHT22;38563;54.258;12.574;2023-02-28T04:21:10;-2.50;99.90
13598;DHT22;38563;54.258;12.574;2023-02-28T04:23:37;-2.40;99.90
13598;DHT22;38563;54.258;12.574;2023-02-28T04:26:06;-2.40;99.90
13598;DHT22;38563;54.258;12.574;2023-02-28T04:28:33;-2.40;99.90
13598;DHT22;38563;54.258;12.574;2023-02-28T04:31:02;-2.30;99.90
13598;DHT22;38563;54.258;12.574;2023-02-28T04:33:30;-2.40;99.90
13598;DHT22;38563;54.258;12.574;2023-02-28T04:36:01;-2.50;99.90
13598;DHT22;38563;54.258;12.574;2023-02-28T04:38:28;-2.40;99.90
13598;DHT22;38563;54.258;12.574;2023-02-28T04:40:57;-2.40;99.90
13598;DHT22;38563;54.258;12.574;2023-02-28T04:43:25;-2.50;99.90
13598;DHT22;38563;54.258;12.574;2023-02-28T04:45:53;-2.50;99.90
13598;DHT22;38563;54.258;12.574;2023-02-28T04:48:22;-2.60;99.90
13598;DHT22;38563;54.258;12.574;2023-02-28T04:50:48;-2.70;99.90
13598;DHT22;38563;54.258;12.574;2023-02-28T04:53:15;-2.80;99.90
13598;DHT22;38563;54.258;12.574;2023-02-28T04:55:42;-2.80;99.90
13598;DHT22;38563;54.258;12.574;2023-02-28T04:58:09;-2.90;99.90
13598;DHT22;38563;54.258;12.574;2023-02-28T05:00:37;-3.00;99.90
13598;DHT22;38563;54.258;12.574;2023-02-28T05:03:04;-3.10;99.90
13598;DHT22;38563;54.258;12.574;2023-02-28T05:05:31;-3.10;99.90
13598;DHT22;38563;54.258;12.574;2023-02-28T05:07:57;-3.10;99.90
13598;DHT22;38563;54.258;12.574;2023-02-28T05:10:24;-3.20;99.90
13598;DHT22;38563;54.258;12.574;2023-02-28T05:12:51;-3.20;99.90
13598;DHT22;38563;54.258;12.574;2023-02-28T05:15:18;-3.10;99.90
13598;DHT22;38563;54.258;12.574;2023-02-28T05:17:46;-3.20;99.90
13598;DHT22;38563;54.258;12.574;2023-02-28T05:20:12;-3.10;99.90
13598;DHT22;38563;54.258;12.574;2023-02-28T05:22:40;-3.20;99.90
13598;DHT22;38563;54.258;12.574;2023-02-28T05:25:08;-3.40;99.90
13598;DHT22;38563;54.258;12.574;2023-02-28T05:27:37;-3.40;99.90
13598;DHT22;38563;54.258;12.574;2023-02-28T05:30:05;-3.40;99.90
13598;DHT22;38563;54.258;12.574;2023-02-28T05:32:32;-3.40;99.90
13598;DHT22;38563;54.258;12.574;2023-02-28T05:35:00;-3.40;99.90
13598;DHT22;38563;54.258;12.574;2023-02-28T05:37:27;-3.40;99.90
13598;DHT22;38563;54.258;12.574;2023-02-28T05:39:53;-3.30;99.90
13598;DHT22;38563;54.258;12.574;2023-02-28T05:42:20;-3.20;99.90
13598;DHT22;38563;54.258;12.574;2023-02-28T05:44:47;-3.20;99.90
13598;DHT22;38563;54.258;12.574;2023-02-28T05:47:13;-3.10;99.90
13598;DHT22;38563;54.258;12.574;2023-02-28T05:49:41;-3.10;99.90
13598;DHT22;38563;54.258;12.574;2023-02-28T05:52:09;-3.20;99.90
13598;DHT22;38563;54.258;12.574;2023-02-28T05:54:36;-3.30;99.90
13598;DHT22;38563;54.258;12.574;2023-02-28T05:57:02;-3.40;99.90
13598;DHT22;38563;54.258;12.574;2023-02-28T05:59:29;-3.40;99.90
13598;DHT22;38563;54.258;12.574;2023-02-28T06:01:56;-3.30;99.90
13598;DHT22;38563;54.258;12.574;2023-02-28T06:04:22;-3.30;99.90
13598;DHT22;38563;54.258;12.574;2023-02-28T06:06:50;-3.20;99.90
13598;DHT22;38563;54.258;12.574;2023-02-28T06:09:18;-3.10;99.90
13598;DHT22;38563;54.258;12.574;2023-02-28T06:11:46;-3.10;99.90
13598;DHT22;38563;54.258;12.574;2023-02-28T06:14:15;-3.00;99.90
13598;DHT22;38563;54.258;12.574;2023-02-28T06:16:42;-3.00;99.90
13598;DHT22;38563;54.258;12.574;2023-02-28T06:19:10;-3.00;99.90
13598;DHT22;38563;54.258;12.574;2023-02-28T06:21:37;-3.00;99.90
13598;DHT22;38563;54.258;12.574;2023-02-28T06:24:04;-3.00;99.90
13598;DHT22;38563;54.258;12.574;2023-02-28T06:26:32;-3.00;99.90
13598;DHT22;38563;54.258;12.574;2023-02-28T06:28:59;-2.90;99.90
13598;DHT22;38563;54.258;12.574;2023-02-28T06:31:26;-2.90;99.90
13598;DHT22;38563;54.258;12.574;2023-02-28T06:33:54;-2.90;99.90
13598;DHT22;38563;54.258;12.574;2023-02-28T06:36:21;-2.90;99.90
13598;DHT22;38563;54.258;12.574;2023-02-28T06:38:48;-2.90;99.90
13598;DHT22;38563;54.258;12.574;2023-02-28T06:41:20;-2.80;99.90
13598;DHT22;38563;54.258;12.574;2023-02-28T06:43:48;-2.80;99.90
13598;DHT22;38563;54.258;12.574;2023-02-28T06:46:15;-2.80;99.90
13598;DHT22;38563;54.258;12.574;2023-02-28T06:48:43;-2.70;99.90
13598;DHT22;38563;54.258;12.574;2023-02-28T06:51:12;-2.60;99.90
13598;DHT22;38563;54.258;12.574;2023-02-28T06:53:39;-2.60;99.90
13598;DHT22;38563;54.258;12.574;2023-02-28T06:56:07;-2.60;99.90
13598;DHT22;38563;54.258;12.574;2023-02-28T06:58:34;-2.60;99.90
13598;DHT22;38563;54.258;12.574;2023-02-28T07:01:03;-2.60;99.90
13598;DHT22;38563;54.258;12.574;2023-02-28T07:03:30;-2.60;99.90
13598;DHT22;38563;54.258;12.574;2023-02-28T07:05:57;-2.60;99.90
13598;DHT22;38563;54.258;12.574;2023-02-28T07:08:25;-2.60;99.90
13598;DHT22;38563;54.258;12.574;2023-02-28T07:10:52;-2.60;99.90
13598;DHT22;38563;54.258;12.574;2023-02-28T07:13:19;-2.50;99.90
13598;DHT22;38563;54.258;12.574;2023-02-28T07:15:53;-2.50;99.90
13598;DHT22;38563;54.258;12.574;2023-02-28T07:18:21;-2.50;99.90
13598;DHT22;38563;54.258;12.574;2023-02-28T07:20:49;-2.40;99.90
13598;DHT22;38563;54.258;12.574;2023-02-28T07:23:16;-2.20;99.90
13598;DHT22;38563;54.258;12.574;2023-02-28T07:25:43;-2.20;99.90
13598;DHT22;38563;54.258;12.574;2023-02-28T07:28:11;-2.10;99.90
13598;DHT22;38563;54.258;12.574;2023-02-28T07:30:39;-2.00;99.90
13598;DHT22;38563;54.258;12.574;2023-02-28T07:33:05;-2.00;99.90
13598;DHT22;38563;54.258;12.574;2023-02-28T07:35:33;-1.90;99.90
13598;DHT22;38563;54.258;12.574;2023-02-28T07:38:00;-1.90;99.90
13598;DHT22;38563;54.258;12.574;2023-02-28T07:40:28;-1.80;99.90
13598;DHT22;38563;54.258;12.574;2023-02-28T07:42:55;-1.80;99.90
13598;DHT22;38563;54.258;12.574;2023-02-28T07:45:21;-1.70;99.90
13598;DHT22;38563;54.258;12.574;2023-02-28T07:47:48;-1.60;99.90
13598;DHT22;38563;54.258;12.574;2023-02-28T07:52:43;-1.50;99.90
13598;DHT22;38563;54.258;12.574;2023-02-28T07:55:10;-1.50;99.90
13598;DHT22;38563;54.258;12.574;2023-02-28T07:57:37;-1.40;99.90
13598;DHT22;38563;54.258;12.574;2023-02-28T08:00:04;-1.30;99.90
13598;DHT22;38563;54.258;12.574;2023-02-28T08:02:37;-1.20;99.90
13598;DHT22;38563;54.258;12.574;2023-02-28T08:05:04;-1.10;99.90
13598;DHT22;38563;54.258;12.574;2023-02-28T08:07:31;-1.10;99.90
13598;DHT22;38563;54.258;12.574;2023-02-28T08:10:00;-1.00;99.90
13598;DHT22;38563;54.258;12.574;2023-02-28T08:12:27;-0.90;99.90
13598;DHT22;38563;54.258;12.574;2023-02-28T08:14:53;-0.80;99.90
13598;DHT22;38563;54.258;12.574;2023-02-28T08:17:20;-0.70;99.90
13598;DHT22;38563;54.258;12.574;2023-02-28T08:19:47;-0.60;99.90
13598;DHT22;38563;54.258;12.574;2023-02-28T08:22:13;-0.50;99.90
13598;DHT22;38563;54.258;12.574;2023-02-28T08:24:41;-0.40;99.90
13598;DHT22;38563;54.258;12.574;2023-02-28T08:27:09;-0.30;99.90
13598;DHT22;38563;54.258;12.574;2023-02-28T08:29:36;-0.30;99.90
13598;DHT22;38563;54.258;12.574;2023-02-28T08:32:04;-0.20;99.90
13598;DHT22;38563;54.258;12.574;2023-02-28T08:34:31;-0.10;99.90
13598;DHT22;38563;54.258;12.574;2023-02-28T08:36:57;0.00;99.90
13598;DHT22;38563;54.258;12.574;2023-02-28T08:39:24;0.00;99.90
13598;DHT22;38563;54.258;12.574;2023-02-28T08:41:51;0.10;99.90
13598;DHT22;38563;54.258;12.574;2023-02-28T08:44:19;0.20;99.90
13598;DHT22;38563;54.258;12.574;2023-02-28T08:46:46;0.20;99.90
13598;DHT22;38563;54.258;12.574;2023-02-28T08:49:12;0.40;99.90
13598;DHT22;38563;54.258;12.574;2023-02-28T08:51:39;0.50;99.90
13598;DHT22;38563;54.258;12.574;2023-02-28T08:54:06;0.60;99.90
13598;DHT22;38563;54.258;12.574;2023-02-28T08:56:32;0.80;99.90
13598;DHT22;38563;54.258;12.574;2023-02-28T08:58:59;0.90;99.90
13598;DHT22;38563;54.258;12.574;2023-02-28T09:01:28;0.90;99.90
13598;DHT22;38563;54.258;12.574;2023-02-28T09:03:56;0.90;99.90
13598;DHT22;38563;54.258;12.574;2023-02-28T09:06:25;1.00;99.90
13598;DHT22;38563;54.258;12.574;2023-02-28T09:08:52;1.10;99.90
13598;DHT22;38563;54.258;12.574;2023-02-28T09:11:19;1.20;99.90
13598;DHT22;38563;54.258;12.574;2023-02-28T09:13:46;1.50;99.90
13598;DHT22;38563;54.258;12.574;2023-02-28T09:16:14;1.70;99.90
13598;DHT22;38563;54.258;12.574;2023-02-28T09:18:43;1.70;99.90
13598;DHT22;38563;54.258;12.574;2023-02-28T09:21:11;1.80;99.90
13598;DHT22;38563;54.258;12.574;2023-02-28T09:23:39;1.80;99.90
13598;DHT22;38563;54.258;12.574;2023-02-28T09:26:06;1.90;99.90
13598;DHT22;38563;54.258;12.574;2023-02-28T09:28:33;2.10;99.90
13598;DHT22;38563;54.258;12.574;2023-02-28T09:31:00;2.20;99.90
13598;DHT22;38563;54.258;12.574;2023-02-28T09:33:30;2.30;99.90
13598;DHT22;38563;54.258;12.574;2023-02-28T09:36:02;2.30;99.90
13598;DHT22;38563;54.258;12.574;2023-02-28T09:38:29;2.30;99.90
13598;DHT22;38563;54.258;12.574;2023-02-28T09:40:59;2.40;99.90
13598;DHT22;38563;54.258;12.574;2023-02-28T09:43:29;2.50;99.90
13598;DHT22;38563;54.258;12.574;2023-02-28T09:46:02;2.50;99.90
13598;DHT22;38563;54.258;12.574;2023-02-28T09:48:34;2.50;99.90
13598;DHT22;38563;54.258;12.574;2023-02-28T09:51:05;2.70;99.90
13598;DHT22;38563;54.258;12.574;2023-02-28T09:53:37;2.80;99.90
13598;DHT22;38563;54.258;12.574;2023-02-28T09:56:08;2.80;99.90
13598;DHT22;38563;54.258;12.574;2023-02-28T09:58:40;3.00;99.90
13598;DHT22;38563;54.258;12.574;2023-02-28T10:01:12;3.10;99.90
13598;DHT22;38563;54.258;12.574;2023-02-28T10:03:47;3.10;99.90
13598;DHT22;38563;54.258;12.574;2023-02-28T10:06:20;3.10;99.90
13598;DHT22;38563;54.258;12.574;2023-02-28T10:08:54;3.20;99.90
13598;DHT22;38563;54.258;12.574;2023-02-28T10:11:23;3.30;99.90
13598;DHT22;38563;54.258;12.574;2023-02-28T10:13:54;3.40;99.90
13598;DHT22;38563;54.258;12.574;2023-02-28T10:16:31;3.50;99.90
13598;DHT22;38563;54.258;12.574;2023-02-28T10:19:03;3.60;99.90
13598;DHT22;38563;54.258;12.574;2023-02-28T10:21:35;3.60;99.90
13598;DHT22;38563;54.258;12.574;2023-02-28T10:24:08;3.60;99.90
13598;DHT22;38563;54.258;12.574;2023-02-28T10:26:37;3.60;99.90
13598;DHT22;38563;54.258;12.574;2023-02-28T10:29:03;3.80;99.90
13598;DHT22;38563;54.258;12.574;2023-02-28T10:31:30;3.90;99.90
13598;DHT22;38563;54.258;12.574;2023-02-28T10:33:57;4.00;99.90
13598;DHT22;38563;54.258;12.574;2023-02-28T10:36:24;3.90;99.90
13598;DHT22;38563;54.258;12.574;2023-02-28T10:38:52;4.00;99.90
13598;DHT22;38563;54.258;12.574;2023-02-28T10:41:28;4.10;99.90
13598;DHT22;38563;54.258;12.574;2023-02-28T10:44:14;4.10;99.90
13598;DHT22;38563;54.258;12.574;2023-02-28T10:46:42;4.30;99.90
13598;DHT22;38563;54.258;12.574;2023-02-28T10:49:13;4.30;99.90
13598;DHT22;38563;54.258;12.574;2023-02-28T10:51:41;4.30;99.90
13598;DHT22;38563;54.258;12.574;2023-02-28T10:54:17;4.20;99.90
13598;DHT22;38563;54.258;12.574;2023-02-28T10:56:44;4.10;99.90
13598;DHT22;38563;54.258;12.574;2023-02-28T10:59:27;4.10;99.90
13598;DHT22;38563;54.258;12.574;2023-02-28T11:01:54;4.20;99.90
13598;DHT22;38563;54.258;12.574;2023-02-28T11:04:33;4.20;99.90
13598;DHT22;38563;54.258;12.574;2023-02-28T11:07:03;4.40;99.90
13598;DHT22;38563;54.258;12.574;2023-02-28T11:09:34;4.70;99.90
13598;DHT22;38563;54.258;12.574;2023-02-28T11:12:02;4.70;99.90
13598;DHT22;38563;54.258;12.574;2023-02-28T11:14:43;4.60;99.90
13598;DHT22;38563;54.258;12.574;2023-02-28T11:17:20;4.60;99.90
13598;DHT22;38563;54.258;12.574;2023-02-28T11:19:51;4.50;99.90
13598;DHT22;38563;54.258;12.574;2023-02-28T11:22:20;4.50;99.90
13598;DHT22;38563;54.258;12.574;2023-02-28T11:24:51;4.60;99.90
13598;DHT22;38563;54.258;12.574;2023-02-28T11:27:39;4.60;99.90
13598;DHT22;38563;54.258;12.574;2023-02-28T11:30:27;4.80;99.90
13598;DHT22;38563;54.258;12.574;2023-02-28T11:32:54;5.00;99.90
13598;DHT22;38563;54.258;12.574;2023-02-28T11:35:23;5.00;99.90
13598;DHT22;38563;54.258;12.574;2023-02-28T11:37:50;5.00;99.90
13598;DHT22;38563;54.258;12.574;2023-02-28T11:40:33;5.20;99.90
13598;DHT22;38563;54.258;12.574;2023-02-28T11:43:13;5.10;99.90
13598;DHT22;38563;54.258;12.574;2023-02-28T11:45:59;5.20;99.90
13598;DHT22;38563;54.258;12.574;2023-02-28T11:48:37;5.30;99.90
13598;DHT22;38563;54.258;12.574;2023-02-28T11:51:15;5.40;99.90
13598;DHT22;38563;54.258;12.574;2023-02-28T11:53:53;5.30;99.90
13598;DHT22;38563;54.258;12.574;2023-02-28T11:56:29;5.30;99.90
13598;DHT22;38563;54.258;12.574;2023-02-28T11:59:09;5.20;99.90
13598;DHT22;38563;54.258;12.574;2023-02-28T12:02:03;5.10;99.90
13598;DHT22;38563;54.258;12.574;2023-02-28T12:04:41;5.10;99.90
13598;DHT22;38563;54.258;12.574;2023-02-28T12:07:18;5.10;99.90
13598;DHT22;38563;54.258;12.574;2023-02-28T12:09:57;5.30;99.90
13598;DHT22;38563;54.258;12.574;2023-02-28T12:12:37;5.50;99.90
13598;DHT22;38563;54.258;12.574;2023-02-28T12:15:22;5.60;99.90
13598;DHT22;38563;54.258;12.574;2023-02-28T12:17:59;5.50;99.90
13598;DHT22;38563;54.258;12.574;2023-02-28T12:20:33;5.70;99.90
13598;DHT22;38563;54.258;12.574;2023-02-28T12:23:17;5.70;99.90
13598;DHT22;38563;54.258;12.574;2023-02-28T12:25:56;5.70;99.90
13598;DHT22;38563;54.258;12.574;2023-02-28T12:28:30;5.80;99.90
13598;DHT22;38563;54.258;12.574;2023-02-28T12:31:03;5.90;99.90
13598;DHT22;38563;54.258;12.574;2023-02-28T12:33:34;5.90;99.90
13598;DHT22;38563;54.258;12.574;2023-02-28T12:36:08;5.70;99.90
13598;DHT22;38563;54.258;12.574;2023-02-28T12:38:39;5.60;99.90
13598;DHT22;38563;54.258;12.574;2023-02-28T12:41:13;5.60;99.90
13598;DHT22;38563;54.258;12.574;2023-02-28T12:43:44;5.40;99.90
13598;DHT22;38563;54.258;12.574;2023-02-28T12:46:15;5.50;99.90
13598;DHT22;38563;54.258;12.574;2023-02-28T12:48:46;5.50;99.90
13598;DHT22;38563;54.258;12.574;2023-02-28T12:51:16;5.60;99.90
13598;DHT22;38563;54.258;12.574;2023-02-28T12:53:53;5.80;99.90
13598;DHT22;38563;54.258;12.574;2023-02-28T12:56:30;5.80;99.90
13598;DHT22;38563;54.258;12.574;2023-02-28T12:59:09;5.80;99.90
13598;DHT22;38563;54.258;12.574;2023-02-28T13:01:46;5.90;99.90
13598;DHT22;38563;54.258;12.574;2023-02-28T13:04:36;5.90;99.90
13598;DHT22;38563;54.258;12.574;2023-02-28T13:07:19;5.80;99.90
13598;DHT22;38563;54.258;12.574;2023-02-28T13:09:55;5.60;99.90
13598;DHT22;38563;54.258;12.574;2023-02-28T13:12:22;5.60;99.90
13598;DHT22;38563;54.258;12.574;2023-02-28T13:14:51;5.60;99.90
13598;DHT22;38563;54.258;12.574;2023-02-28T13:17:27;5.60;99.90
13598;DHT22;38563;54.258;12.574;2023-02-28T13:19:59;5.60;99.90
13598;DHT22;38563;54.258;12.574;2023-02-28T13:22:38;5.60;99.90
13598;DHT22;38563;54.258;12.574;2023-02-28T13:28:10;5.80;99.90
13598;DHT22;38563;54.258;12.574;2023-02-28T13:31:04;5.80;99.90
13598;DHT22;38563;54.258;12.574;2023-02-28T13:33:33;5.70;99.90
13598;DHT22;38563;54.258;12.574;2023-02-28T13:38:55;5.70;99.90
13598;DHT22;38563;54.258;12.574;2023-02-28T13:41:45;5.60;99.90
13598;DHT22;38563;54.258;12.574;2023-02-28T13:44:13;5.50;99.90
13598;DHT22;38563;54.258;12.574;2023-02-28T13:49:46;5.50;99.90
13598;DHT22;38563;54.258;12.574;2023-02-28T13:52:16;5.50;99.90
13598;DHT22;38563;54.258;12.574;2023-02-28T13:54:56;5.50;99.90
13598;DHT22;38563;54.258;12.574;2023-02-28T13:57:33;5.50;99.90
13598;DHT22;38563;54.258;12.574;2023-02-28T14:00:17;5.50;99.90
13598;DHT22;38563;54.258;12.574;2023-02-28T14:02:57;5.40;99.90
13598;DHT22;38563;54.258;12.574;2023-02-28T14:05:29;5.40;99.90
13598;DHT22;38563;54.258;12.574;2023-02-28T14:07:58;5.30;99.90
13598;DHT22;38563;54.258;12.574;2023-02-28T14:10:27;5.30;99.90
13598;DHT22;38563;54.258;12.574;2023-02-28T14:13:00;5.30;99.90
13598;DHT22;38563;54.258;12.574;2023-02-28T14:15:39;5.40;99.90
13598;DHT22;38563;54.258;12.574;2023-02-28T14:18:16;5.50;99.90
13598;DHT22;38563;54.258;12.574;2023-02-28T14:20:46;5.50;99.90
13598;DHT22;38563;54.258;12.574;2023-02-28T14:23:19;5.60;99.90
13598;DHT22;38563;54.258;12.574;2023-02-28T14:25:54;5.70;99.90
13598;DHT22;38563;54.258;12.574;2023-02-28T14:28:41;5.80;99.90
13598;DHT22;38563;54.258;12.574;2023-02-28T14:31:10;5.80;99.90
13598;DHT22;38563;54.258;12.574;2023-02-28T14:36:33;5.60;99.90
13598;DHT22;38563;54.258;12.574;2023-02-28T14:39:05;5.60;99.90
13598;DHT22;38563;54.258;12.574;2023-02-28T14:41:34;5.40;99.90
13598;DHT22;38563;54.258;12.574;2023-02-28T14:44:12;5.40;99.90
13598;DHT22;38563;54.258;12.574;2023-02-28T14:46:42;5.40;99.90
13598;DHT22;38563;54.258;12.574;2023-02-28T14:49:15;5.60;99.90
13598;DHT22;38563;54.258;12.574;2023-02-28T14:51:44;5.60;99.90
13598;DHT22;38563;54.258;12.574;2023-02-28T14:54:15;5.60;99.90
13598;DHT22;38563;54.258;12.574;2023-02-28T14:56:42;5.60;99.90
13598;DHT22;38563;54.258;12.574;2023-02-28T14:59:26;5.50;99.90
13598;DHT22;38563;54.258;12.574;2023-02-28T15:02:15;5.40;99.90
13598;DHT22;38563;54.258;12.574;2023-02-28T15:04:42;5.40;99.90
13598;DHT22;38563;54.258;12.574;2023-02-28T15:07:14;5.30;99.90
13598;DHT22;38563;54.258;12.574;2023-02-28T15:09:41;5.30;99.90
13598;DHT22;38563;54.258;12.574;2023-02-28T15:12:07;5.20;99.90
13598;DHT22;38563;54.258;12.574;2023-02-28T15:14:42;5.10;99.90
13598;DHT22;38563;54.258;12.574;2023-02-28T15:17:15;5.10;99.90
13598;DHT22;38563;54.258;12.574;2023-02-28T15:19:49;5.00;99.90
13598;DHT22;38563;54.258;12.574;2023-02-28T15:22:28;5.00;99.90
13598;DHT22;38563;54.258;12.574;2023-02-28T15:24:58;5.00;99.90
13598;DHT22;38563;54.258;12.574;2023-02-28T15:27:26;4.90;99.90
13598;DHT22;38563;54.258;12.574;2023-02-28T15:29:56;4.80;99.90
13598;DHT22;38563;54.258;12.574;2023-02-28T15:32:27;4.80;99.90
13598;DHT22;38563;54.258;12.574;2023-02-28T15:34:55;4.70;99.90
13598;DHT22;38563;54.258;12.574;2023-02-28T15:37:29;4.60;99.90
13598;DHT22;38563;54.258;12.574;2023-02-28T15:40:04;4.60;99.90
13598;DHT22;38563;54.258;12.574;2023-02-28T15:42:31;4.50;99.90
13598;DHT22;38563;54.258;12.574;2023-02-28T15:44:58;4.50;99.90
13598;DHT22;38563;54.258;12.574;2023-02-28T15:47:27;4.40;99.90
13598;DHT22;38563;54.258;12.574;2023-02-28T15:49:56;4.40;99.90
13598;DHT22;38563;54.258;12.574;2023-02-28T15:52:29;4.40;99.90
13598;DHT22;38563;54.258;12.574;2023-02-28T15:54:59;4.30;99.90
13598;DHT22;38563;54.258;12.574;2023-02-28T15:57:33;4.20;99.90
13598;DHT22;38563;54.258;12.574;2023-02-28T16:00:02;4.20;99.90
13598;DHT22;38563;54.258;12.574;2023-02-28T16:02:38;4.10;99.90
13598;DHT22;38563;54.258;12.574;2023-02-28T16:05:22;4.20;99.90